Time;durP1;ratioP1;P1;durP2;ratioP2;P2;SDS_P1;SDS_P2;PMS_P1;PMS_P2;Temp;Humidity;BMP_temperature;BMP_pressure;BME280_temperature;BME280_humidity;BME280_pressure;Samples;Min_cycle;Max_cycle;Signal;HPM_P1;HPM_P2
2022/06/06 00:00:10;;;;;;;42.08;16.42;;;;;;;-144.94;69.43;76145.16;5015722;28;20108;-80
2022/06/06 00:02:36;;;;;;;37.30;16.20;;;;;;;-144.94;69.37;76149.25;5015483;28;20453;-81
2022/06/06 00:05:01;;;;;;;;;;;;;;;-144.94;69.45;76176.03;5015714;28;20041;-79
2022/06/06 00:07:27;;;;;;;38.70;16.52;;;;;;;-144.94;69.37;76180.13;5014461;28;19909;-79
2022/06/06 00:09:52;;;;;;;;;;;;;;;-144.94;68.82;76182.19;5015870;28;20062;-82
2022/06/06 00:12:20;;;;;;;35.45;15.48;;;;;;;-144.94;69.00;76198.66;5015594;28;19921;-80
2022/06/06 00:14:45;;;;;;;36.30;17.30;;;;;;;-144.94;68.70;76196.63;5014139;28;20373;-80
2022/06/06 00:17:10;;;;;;;;;;;;;;;-144.94;68.72;76200.72;5015540;28;20095;-79
2022/06/06 00:19:36;;;;;;;36.60;16.13;;;;;;;-144.94;68.84;76200.72;5015105;28;19909;-80
2022/06/06 00:22:01;;;;;;;39.88;16.65;;;;;;;-144.94;68.73;76213.09;5014031;28;20279;-81
2022/06/06 00:24:26;;;;;;;;;;;;;;;-144.94;69.00;76211.03;5015729;28;20430;-80
2022/06/06 00:26:52;;;;;;;37.83;15.43;;;;;;;-144.94;68.59;76202.78;5015040;28;19952;-79
2022/06/06 00:29:18;;;;;;;;;;;;;;;-144.94;68.47;76208.97;5015792;28;20092;-80
2022/06/06 00:37:13;;;;;;;37.65;15.98;;;;;;;-144.94;68.06;76235.72;5014639;28;20087;-80
2022/06/06 00:39:41;;;;;;;38.97;15.68;;;;;;;-144.94;68.35;76246.00;5014910;28;20060;-81
2022/06/06 00:42:12;;;;;;;35.65;15.10;;;;;;;-144.94;68.27;76254.25;5015129;28;20109;-81
2022/06/06 00:44:40;;;;;;;34.42;15.45;;;;;;;-144.94;68.35;76239.84;5014535;28;20109;-80
2022/06/06 00:47:13;;;;;;;32.38;13.15;;;;;;;-144.94;68.16;76250.13;5014791;28;20044;-82
2022/06/06 00:49:43;;;;;;;32.85;12.57;;;;;;;-144.94;67.91;76254.25;5014480;28;20037;-80
2022/06/06 00:52:22;;;;;;;30.42;13.45;;;;;;;-144.94;67.63;76248.06;5014692;28;20080;-80
2022/06/06 00:54:50;;;;;;;32.05;13.30;;;;;;;-144.94;67.67;76254.25;5014390;28;20112;-82
2022/06/06 00:57:20;;;;;;;27.90;12.50;;;;;;;-144.94;67.65;76250.13;5014467;28;20036;-81
2022/06/06 00:59:46;;;;;;;35.47;13.10;;;;;;;-144.94;67.40;76252.19;5014667;28;20108;-79
2022/06/06 01:02:13;;;;;;;27.15;12.35;;;;;;;-144.94;67.58;76258.38;5014763;28;20034;-79
2022/06/06 01:04:40;;;;;;;29.63;12.45;;;;;;;-144.94;67.55;76256.31;5013478;28;20037;-81
2022/06/06 01:07:09;;;;;;;28.80;12.40;;;;;;;-144.94;67.78;76262.47;5014818;28;20040;-81
2022/06/06 01:09:35;;;;;;;31.30;12.65;;;;;;;-144.94;67.89;76266.59;5015325;28;20025;-80
2022/06/06 01:12:02;;;;;;;;;;;;;;;-144.94;67.70;76260.44;5015267;28;20464;-81
2022/06/06 01:14:31;;;;;;;;;;;;;;;-144.94;67.38;76264.53;5014210;28;19921;-80
2022/06/06 01:17:03;;;;;;;28.08;12.00;;;;;;;-144.94;67.66;76268.66;5014709;28;19913;-79
2022/06/06 01:19:44;;;;;;;29.70;11.20;;;;;;;-144.94;67.82;76270.72;5013761;28;20030;-79
2022/06/06 01:22:37;;;;;;;30.23;11.05;;;;;;;-144.94;68.06;76270.72;5016274;28;20033;-81
2022/06/06 01:25:08;;;;;;;26.30;10.32;;;;;;;-144.94;67.84;76278.97;5021694;28;20175;-79
2022/06/06 01:27:39;;;;;;;26.33;10.35;;;;;;;-144.94;68.09;76278.97;5021935;28;20116;-79
2022/06/06 01:30:12;;;;;;;28.52;10.63;;;;;;;-144.94;67.98;76270.72;5021229;28;20029;-80
2022/06/06 01:32:44;;;;;;;27.45;9.88;;;;;;;-144.94;68.07;76266.59;5019984;28;20117;-79
2022/06/06 01:35:11;;;;;;;26.42;9.70;;;;;;;-144.94;68.04;76268.66;5018959;28;20026;-79
2022/06/06 01:37:40;;;;;;;23.25;10.80;;;;;;;-144.94;68.36;76268.66;5014604;28;20033;-82
2022/06/06 01:40:11;;;;;;;21.67;9.88;;;;;;;-144.94;68.08;76268.66;5014131;28;20034;-80
2022/06/06 01:43:07;;;;;;;23.60;8.98;;;;;;;-144.94;68.13;76252.19;5014317;28;20029;-80
2022/06/06 01:45:40;;;;;;;23.17;9.77;;;;;;;-144.94;68.41;76272.78;5010940;28;20076;-80
2022/06/06 01:48:30;;;;;;;21.35;9.48;;;;;;;-144.94;68.89;76274.84;5013461;28;20092;-80
2022/06/06 01:50:56;;;;;;;26.23;10.23;;;;;;;-144.94;68.96;76295.44;5013643;28;20037;-79
2022/06/06 01:53:24;;;;;;;20.13;8.43;;;;;;;-144.94;69.38;76299.53;5013657;28;20354;-79
2022/06/06 01:55:52;;;;;;;24.75;10.10;;;;;;;-144.94;69.74;76295.44;5013510;28;20041;-78
2022/06/06 01:58:27;;;;;;;25.60;10.07;;;;;;;-144.94;69.90;76295.44;5013344;28;20022;-80
2022/06/06 02:00:53;;;;;;;29.77;10.60;;;;;;;-144.94;70.02;76309.84;5014410;28;20100;-79
2022/06/06 02:03:18;;;;;;;;;;;;;;;-144.94;70.24;76301.59;5013646;28;20034;-78
2022/06/06 02:05:44;;;;;;;25.37;9.07;;;;;;;-144.94;70.71;76318.06;5013384;28;20000;-79
2022/06/06 02:08:10;;;;;;;;;;;;;;;-144.94;70.60;76320.13;5013750;28;20284;-81
2022/06/06 02:10:36;;;;;;;25.25;9.48;;;;;;;-144.94;70.77;76320.13;5013221;28;19910;-79
2022/06/06 02:13:01;;;;;;;;;;;;;;;-144.94;71.29;76326.31;5013331;28;20114;-79
2022/06/06 02:15:27;;;;;;;25.15;10.48;;;;;;;-144.94;71.64;76330.41;5013363;28;20044;-79
2022/06/06 02:17:53;;;;;;;;;;;;;;;-144.94;71.83;76346.88;5013448;28;20033;-79
2022/06/06 02:20:21;;;;;;;29.00;10.50;;;;;;;-144.94;71.97;76353.06;5012890;28;19913;-78
2022/06/06 02:22:47;;;;;;;27.73;11.73;;;;;;;-144.94;72.47;76353.06;5012954;28;20097;-79
2022/06/06 02:25:14;;;;;;;23.75;9.73;;;;;;;-144.94;72.54;76353.06;5013218;28;20531;-79
2022/06/06 02:27:40;;;;;;;26.38;10.00;;;;;;;-144.94;72.75;76353.06;5013084;28;20049;-79
2022/06/06 02:30:09;;;;;;;27.38;10.32;;;;;;;-144.94;73.15;76359.25;5012626;28;20089;-79
2022/06/06 02:32:34;;;;;;;26.02;10.45;;;;;;;-144.94;73.04;76355.13;5012797;28;20044;-79
2022/06/06 02:35:00;;;;;;;24.40;10.23;;;;;;;-144.94;73.63;76365.41;5012756;28;20467;-78
2022/06/06 02:37:25;;;;;;;;;;;;;;;-144.94;73.45;76365.41;5013303;28;20034;-78
2022/06/06 02:39:50;;;;;;;24.52;10.30;;;;;;;-144.94;74.23;76367.47;5012987;28;19928;-78
2022/06/06 02:42:16;;;;;;;;;;;;;;;-144.94;74.46;76369.53;5013001;28;20022;-78
2022/06/06 02:44:41;;;;;;;23.80;9.93;;;;;;;-144.94;74.57;76371.59;5012959;28;19948;-79
2022/06/06 02:47:07;;;;;;;26.95;10.70;;;;;;;-144.94;74.57;76365.41;5012871;28;20069;-79
2022/06/06 02:49:35;;;;;;;27.30;10.40;;;;;;;-144.94;74.87;76365.41;5012565;28;20040;-79
2022/06/06 02:52:03;;;;;;;25.73;11.35;;;;;;;-144.94;74.53;76359.25;5012772;28;20026;-78
2022/06/06 02:54:29;;;;;;;26.73;10.65;;;;;;;-144.94;74.33;76367.47;5011514;28;20496;-78
2022/06/06 02:56:56;;;;;;;26.05;10.05;;;;;;;-144.94;74.46;76355.13;5012418;28;20495;-78
2022/06/06 02:59:23;;;;;;;30.30;10.95;;;;;;;-144.94;74.34;76355.13;5012928;28;20161;-79
2022/06/06 03:01:49;;;;;;;24.75;10.32;;;;;;;-144.94;74.41;76361.31;5012686;28;20058;-79
2022/06/06 03:04:15;;;;;;;26.10;9.07;;;;;;;-144.94;74.53;76359.25;5012769;28;20072;-79
2022/06/06 03:06:51;;;;;;;;;;;;;;;-144.94;74.56;76369.53;5013279;28;20030;-79
2022/06/06 03:09:42;;;;;;;27.80;9.32;;;;;;;-144.94;74.85;76363.34;5011599;28;20004;-79
2022/06/06 03:12:35;;;;;;;28.27;9.75;;;;;;;-144.94;74.87;76357.19;5012590;28;20092;-79
2022/06/06 03:15:17;;;;;;;23.20;8.85;;;;;;;-144.94;74.78;76363.34;5011541;28;20510;-79
2022/06/06 03:20:58;;;;;;;24.70;9.25;;;;;;;-144.94;74.69;76361.31;5012549;28;20033;-79
2022/06/06 03:23:24;;;;;;;25.77;9.85;;;;;;;-144.94;74.87;76353.06;5012526;28;20030;-79
2022/06/06 03:26:01;;;;;;;23.73;9.05;;;;;;;-144.94;75.03;76348.94;5012320;28;20481;-79
2022/06/06 03:28:39;;;;;;;22.00;8.93;;;;;;;-144.94;75.10;76344.84;5012747;28;20046;-79
2022/06/06 03:31:31;;;;;;;29.25;10.27;;;;;;;-144.94;74.58;76342.78;5012219;28;20030;-79
2022/06/06 03:34:20;;;;;;;28.63;9.75;;;;;;;-144.94;74.39;76332.47;5012739;28;20396;-79
2022/06/06 03:36:57;;;;;;;26.10;9.60;;;;;;;-144.94;74.26;76320.13;5012567;28;20041;-79
2022/06/06 03:39:38;;;;;;;20.52;9.27;;;;;;;-144.94;73.87;76326.31;5012562;28;20041;-79
2022/06/06 03:42:12;;;;;;;24.70;8.88;;;;;;;-144.94;74.00;76330.41;5013794;28;20116;-79
2022/06/06 03:44:55;;;;;;;20.67;8.27;;;;;;;-144.94;74.02;76324.25;5016024;28;20445;-79
2022/06/06 03:47:27;;;;;;;25.38;8.45;;;;;;;-144.94;73.68;76328.34;5015700;28;20054;-78
2022/06/06 03:50:23;;;;;;;21.85;8.10;;;;;;;-144.94;73.18;76326.31;5014758;28;20491;-79
2022/06/06 03:53:12;;;;;;;23.88;8.88;;;;;;;-144.94;72.52;76311.88;5015662;28;20100;-79
2022/06/06 03:55:54;;;;;;;20.23;7.75;;;;;;;-144.94;72.28;76318.06;5016137;28;20108;-79
2022/06/06 03:58:22;;;;;;;17.27;7.07;;;;;;;-144.94;72.26;76320.13;5014780;28;20049;-81
2022/06/06 04:00:47;;;;;;;17.95;6.65;;;;;;;-144.94;71.75;76322.19;5014696;28;20449;-80
2022/06/06 04:03:15;;;;;;;15.48;6.97;;;;;;;-144.94;72.10;76324.25;5015607;28;20075;-80
2022/06/06 04:05:41;;;;;;;19.88;6.88;;;;;;;-144.94;72.30;76326.31;5014308;28;20465;-80
2022/06/06 04:08:08;;;;;;;;;;;;;;;-144.94;72.25;76328.34;5016495;28;20064;-80
2022/06/06 04:10:43;;;;;;;;;;;;;;;-144.94;72.11;76332.47;5015769;28;19987;-79
2022/06/06 04:13:20;;;;;;;15.48;6.47;;;;;;;-144.94;72.02;76324.25;5015135;28;19913;-81
2022/06/06 04:16:13;;;;;;;16.52;6.57;;;;;;;-144.94;71.66;76320.13;5014464;28;20037;-80
2022/06/06 04:19:01;;;;;;;14.35;5.75;;;;;;;-144.94;71.36;76320.13;5015383;28;20038;-80
2022/06/06 04:21:27;;;;;;;16.40;6.15;;;;;;;-144.94;71.20;76320.13;4974163;28;20042;-81
2022/06/06 04:23:52;;;;;;;15.27;5.47;;;;;;;-144.94;71.15;76334.53;5015037;28;20030;-79
2022/06/06 04:26:27;;;;;;;10.70;5.03;;;;;;;-144.94;70.87;76330.41;5015585;28;20249;-80
2022/06/06 04:29:13;;;;;;;12.02;5.38;;;;;;;-144.94;70.35;76326.31;5015339;28;20141;-80
2022/06/06 04:31:43;;;;;;;12.93;5.03;;;;;;;-144.94;69.93;76332.47;5014974;28;20026;-79
2022/06/06 04:34:30;;;;;;;13.48;5.32;;;;;;;-144.94;69.71;76342.78;5015045;28;20096;-79
2022/06/06 04:37:07;;;;;;;12.00;4.70;;;;;;;-144.94;69.60;76328.34;5014842;28;20030;-80
2022/06/06 04:39:51;;;;;;;10.25;4.78;;;;;;;-144.94;69.46;76322.19;5014939;28;20077;-79
2022/06/06 04:42:26;;;;;;;9.32;3.70;;;;;;;-144.94;69.32;76332.47;5013738;28;20384;-79
2022/06/06 04:45:14;;;;;;;10.05;4.50;;;;;;;-144.94;68.54;76322.19;5014630;28;20030;-81
2022/06/06 04:47:41;;;;;;;10.85;5.10;;;;;;;-144.94;68.51;76320.13;5014748;28;20069;-79
2022/06/06 04:50:10;;;;;;;9.95;3.75;;;;;;;-144.94;67.80;76311.88;5013736;28;20025;-78
2022/06/06 04:52:39;;;;;;;9.27;4.53;;;;;;;-144.94;67.33;76322.19;5012967;28;20034;-80
2022/06/06 04:55:08;;;;;;;10.32;4.03;;;;;;;-144.94;67.66;76316.00;5014505;28;20107;-80
2022/06/06 04:57:37;;;;;;;10.20;4.60;;;;;;;-144.94;67.20;76316.00;5014711;28;20061;-81
2022/06/06 05:00:05;;;;;;;10.90;4.55;;;;;;;-144.94;67.55;76324.25;5014102;28;20037;-81
2022/06/06 05:02:33;;;;;;;9.85;3.90;;;;;;;-144.94;67.20;76324.25;5014424;28;20034;-82
2022/06/06 05:04:58;;;;;;;10.40;4.80;;;;;;;-144.94;67.74;76348.94;5014365;28;20125;-80
2022/06/06 05:07:45;;;;;;;11.37;4.47;;;;;;;-144.94;67.79;76355.13;5014574;28;20468;-81
2022/06/06 05:10:27;;;;;;;10.38;3.80;;;;;;;-144.94;67.63;76361.31;5014001;28;20259;-81
2022/06/06 05:13:07;;;;;;;11.82;3.70;;;;;;;-144.94;67.87;76359.25;5014110;28;20388;-80
2022/06/06 05:15:38;;;;;;;8.38;3.97;;;;;;;-144.94;67.48;76355.13;5013967;28;20026;-81
2022/06/06 05:18:22;;;;;;;10.13;4.07;;;;;;;-144.94;66.34;76344.84;5014020;28;20040;-80
2022/06/06 05:20:59;;;;;;;9.73;4.72;;;;;;;-144.94;66.05;76340.72;5014186;28;20053;-81
2022/06/06 05:23:43;;;;;;;13.05;5.03;;;;;;;-144.94;66.46;76355.13;5013746;28;20123;-79
2022/06/06 05:26:30;;;;;;;12.05;3.83;;;;;;;-144.94;65.79;76328.34;5013714;28;20488;-79
2022/06/06 05:29:16;;;;;;;8.85;3.65;;;;;;;-144.94;65.15;76320.13;5013490;28;20034;-79
2022/06/06 05:31:53;;;;;;;10.73;4.47;;;;;;;-144.94;64.45;76320.13;5013853;28;20037;-78
2022/06/06 05:34:25;;;;;;;10.30;4.18;;;;;;;-144.94;64.49;76313.94;5013531;28;20038;-79
2022/06/06 05:37:05;;;;;;;8.98;3.17;;;;;;;-144.94;64.12;76318.06;5013471;28;20338;-78
2022/06/06 05:40:05;;;;;;;8.70;3.88;;;;;;;-144.94;63.87;76313.94;5012321;28;20380;-80
2022/06/06 05:43:07;;;;;;;7.35;3.10;;;;;;;-144.94;62.99;76318.06;5013622;28;20029;-78
2022/06/06 05:45:41;;;;;;;7.20;3.15;;;;;;;-144.94;62.71;76330.41;5013029;28;20072;-79
2022/06/06 05:48:42;;;;;;;10.15;4.03;;;;;;;-144.94;62.44;76311.88;5013123;28;20022;-79
2022/06/06 05:51:22;;;;;;;12.13;3.42;;;;;;;-144.94;61.93;76318.06;5004963;28;20046;-78
2022/06/06 05:54:15;;;;;;;6.93;3.20;;;;;;;-144.94;61.63;76299.53;5012189;28;20029;-78
2022/06/06 05:56:52;;;;;;;8.05;2.90;;;;;;;-144.94;61.44;76291.31;5013408;28;20037;-78
2022/06/06 05:59:49;;;;;;;7.50;3.13;;;;;;;-144.94;61.33;76287.19;5013385;28;20172;-77
2022/06/06 06:02:44;;;;;;;8.43;3.08;;;;;;;-144.94;61.63;76297.47;5013238;28;20515;-78
2022/06/06 06:05:20;;;;;;;5.80;2.72;;;;;;;-144.94;61.50;76293.38;4982163;28;20037;-79
2022/06/06 06:08:07;;;;;;;6.03;3.00;;;;;;;-144.94;61.45;76274.84;5013544;28;20033;-79
2022/06/06 06:10:47;;;;;;;;;;;;;;;-144.94;61.28;76289.25;5013702;28;20357;-78
2022/06/06 06:13:40;;;;;;;6.25;2.88;;;;;;;-144.94;61.46;76291.31;5011929;28;19956;-79
2022/06/06 06:16:07;;;;;;;5.68;2.47;;;;;;;-144.94;61.26;76283.06;5012048;28;20460;-80
2022/06/06 06:18:39;;;;;;;6.72;3.05;;;;;;;-144.94;61.63;76293.38;5012034;28;20121;-80
2022/06/06 06:21:10;;;;;;;6.72;2.85;;;;;;;-144.94;60.92;76264.53;5013317;28;20033;-79
2022/06/06 06:23:39;;;;;;;7.45;2.92;;;;;;;-144.94;60.34;76248.06;5013201;28;20037;-78
2022/06/06 06:26:06;;;;;;;6.43;2.90;;;;;;;-144.94;60.13;76264.53;5013336;28;20104;-77
2022/06/06 06:28:33;;;;;;;;;;;;;;;-144.94;58.73;76217.19;5013368;28;20451;-79
2022/06/06 06:31:12;;;;;;;9.40;3.57;;;;;;;-144.94;56.21;76138.97;5013057;28;19924;-79
2022/06/06 06:33:50;;;;;;;6.75;2.63;;;;;;;-144.94;56.57;76155.44;5013250;28;20026;-77
2022/06/06 06:36:43;;;;;;;7.53;2.58;;;;;;;-144.94;56.32;76124.56;5013237;28;20026;-77
2022/06/06 06:39:23;;;;;;;7.30;3.20;;;;;;;-144.94;55.64;76103.97;5012910;28;20030;-76
2022/06/06 06:42:07;;;;;;;5.72;2.47;;;;;;;-144.94;53.90;76023.69;5012983;28;20116;-79
2022/06/06 06:44:39;;;;;;;4.35;2.20;;;;;;;-144.94;52.28;75966.06;5013080;28;20030;-78
2022/06/06 06:47:18;;;;;;;5.80;2.65;;;;;;;-144.94;53.82;76077.22;5013513;28;20358;-78
2022/06/06 06:49:51;;;;;;;5.32;2.15;;;;;;;-144.94;54.16;76106.03;5011937;28;20057;-78
2022/06/06 06:52:35;;;;;;;5.32;2.00;;;;;;;-144.94;56.00;76204.84;5011756;28;20511;-77
2022/06/06 06:55:25;;;;;;;5.40;2.42;;;;;;;-144.94;57.05;76206.91;5012732;28;20129;-78
2022/06/06 06:58:03;;;;;;;4.65;2.25;;;;;;;-144.94;56.49;76184.25;5012682;28;20054;-77
2022/06/06 07:00:37;;;;;;;6.72;2.55;;;;;;;-144.94;56.05;76192.50;5012846;28;20062;-79
2022/06/06 07:08:32;;;;;;;4.65;2.00;;;;;;;-144.94;53.00;76089.56;5012939;28;20044;-77
2022/06/06 07:09:56;;;;;;;4.50;1.70;;;;;;;-144.94;51.82;76038.09;5012618;28;20026;-80
2022/06/06 07:12:43;;;;;;;5.18;1.88;;;;;;;-144.94;49.55;75957.81;5011542;28;20483;-80
2022/06/06 07:15:11;;;;;;;;;;;;;;;-144.94;49.46;75982.53;5013302;28;20067;-79
2022/06/06 07:17:53;;;;;;;4.30;1.65;;;;;;;-144.94;49.79;75994.88;5015630;28;19909;-79
2022/06/06 07:20:21;;;;;;;4.15;1.88;;;;;;;-144.94;49.33;75972.22;5016413;28;20079;-78
2022/06/06 07:22:59;;;;;;;4.65;1.90;;;;;;;-144.94;50.64;76005.16;5016486;28;20034;-78
2022/06/06 07:25:26;;;;;;;5.55;1.85;;;;;;;-144.94;50.01;75945.47;5015690;28;20034;-81
2022/06/06 07:27:52;;;;;;;4.55;1.65;;;;;;;-144.94;49.79;75920.78;5017067;28;20058;-82
2022/06/06 07:30:20;;;;;;;4.20;1.77;;;;;;;-144.94;49.81;75951.66;5016317;28;20049;-81
2022/06/06 07:33:05;;;;;;;5.35;1.58;;;;;;;-144.94;50.34;75972.22;5016515;28;20029;-79
2022/06/06 07:35:47;;;;;;;5.90;2.22;;;;;;;-144.94;50.37;76021.63;5016437;28;20492;-79
2022/06/06 07:38:39;;;;;;;5.38;1.90;;;;;;;-144.94;51.44;76060.75;5015054;28;20116;-79
2022/06/06 07:41:29;;;;;;;3.60;1.67;;;;;;;-144.94;51.37;76062.81;5016439;28;20049;-83
2022/06/06 07:44:01;;;;;;;3.97;1.55;;;;;;;-144.94;51.36;76054.56;5015947;28;20080;-81
2022/06/06 07:47:05;;;;;;;4.22;1.75;;;;;;;-144.94;51.19;76052.50;5016105;28;20092;-79
2022/06/06 07:50:00;;;;;;;4.20;1.75;;;;;;;-144.94;51.02;76040.16;4985416;28;20037;-79
2022/06/06 07:52:38;;;;;;;5.38;2.05;;;;;;;-144.94;50.73;76054.56;5014705;28;20427;-79
2022/06/06 07:55:22;;;;;;;4.25;1.30;;;;;;;-144.94;49.79;76029.88;5016062;28;20041;-78
2022/06/06 07:57:53;;;;;;;4.70;1.75;;;;;;;-144.94;49.35;76031.94;5015865;28;20121;-78
2022/06/06 08:00:23;;;;;;;3.25;1.50;;;;;;;-144.94;49.27;76003.09;5016004;28;20026;-78
2022/06/06 08:02:54;;;;;;;3.05;1.33;;;;;;;-144.94;49.54;75996.94;5015942;28;20125;-79
2022/06/06 08:05:40;;;;;;;2.97;1.20;;;;;;;-144.94;48.95;75980.47;5015937;28;20114;-78
2022/06/06 08:08:28;;;;;;;4.03;1.27;;;;;;;-144.94;48.11;75961.94;5015744;28;20380;-78
2022/06/06 08:10:56;;;;;;;3.78;1.30;;;;;;;-144.94;48.62;76009.28;5015559;28;20053;-78
2022/06/06 08:13:40;;;;;;;3.50;1.63;;;;;;;-144.94;48.70;75992.81;5015937;28;20045;-78
2022/06/06 08:16:27;;;;;;;3.45;1.00;;;;;;;-144.94;48.35;76007.22;5015659;28;20029;-77
2022/06/06 08:19:30;;;;;;;3.03;1.20;;;;;;;-144.94;47.10;75988.69;5015670;28;20380;-77
2022/06/06 08:21:57;;;;;;;2.22;0.90;;;;;;;-144.94;46.81;75999.00;5015205;28;20499;-77
2022/06/06 08:24:42;;;;;;;2.92;1.10;;;;;;;-144.94;45.69;75976.34;5015274;28;20030;-80
2022/06/06 08:27:11;;;;;;;2.40;0.77;;;;;;;-144.94;45.14;75957.81;5014291;28;20042;-78
2022/06/06 08:29:39;;;;;;;3.70;0.90;;;;;;;-144.94;44.41;75945.47;5014079;28;20029;-76
2022/06/06 08:32:05;;;;;;;1.85;0.80;;;;;;;-144.94;44.58;75939.28;5015323;28;20057;-76
2022/06/06 08:34:33;;;;;;;2.40;0.70;;;;;;;-144.94;43.99;75935.19;5015116;28;20108;-75
2022/06/06 08:37:04;;;;;;;1.88;0.80;;;;;;;-144.94;44.44;75926.94;5015651;28;20064;-77
2022/06/06 08:40:16;;;;;;;2.28;0.90;;;;;;;-144.94;43.41;75908.41;5015344;28;20053;-77
2022/06/06 08:43:03;;;;;;;1.15;0.60;;;;;;;-144.94;43.17;75906.38;4954420;29;20043;-78
2022/06/06 08:45:43;;;;;;;1.52;0.77;;;;;;;-144.94;43.20;75891.94;4938534;29;20463;-80
2022/06/06 08:48:23;;;;;;;0.80;0.40;;;;;;;-144.94;42.98;75873.44;4995491;28;20034;-78
2022/06/06 08:51:19;;;;;;;1.85;0.70;;;;;;;-144.94;41.79;75873.44;5015127;28;20456;-78
2022/06/06 08:54:21;;;;;;;3.90;0.80;;;;;;;-144.94;42.16;75910.47;5014812;28;20128;-79
2022/06/06 08:57:08;;;;;;;2.50;0.80;;;;;;;-144.94;42.51;75926.94;5015023;28;20037;-78
2022/06/06 08:59:37;;;;;;;;;;;;;;;-144.94;42.68;75931.06;5015387;28;20034;-79
2022/06/06 09:02:36;;;;;;;3.58;0.60;;;;;;;-144.94;43.32;75900.19;5014764;28;20287;-78
2022/06/06 09:05:13;;;;;;;4.25;0.80;;;;;;;-144.94;43.37;75904.31;5014774;28;20101;-78
2022/06/06 09:08:16;;;;;;;1.33;0.60;;;;;;;-144.94;42.45;75867.25;5014647;28;20030;-78
2022/06/06 09:10:55;;;;;;;1.67;0.68;;;;;;;-144.94;42.66;75906.38;5014789;28;20033;-78
2022/06/06 09:13:56;;;;;;;1.23;0.52;;;;;;;-144.94;43.27;75926.94;5014619;28;20062;-78
2022/06/06 09:16:33;;;;;;;2.17;0.70;;;;;;;-144.94;43.73;75931.06;5014183;28;20037;-78
2022/06/06 09:19:38;;;;;;;2.38;1.15;;;;;;;-144.94;43.25;75916.66;5014284;28;20117;-78
2022/06/06 09:22:42;;;;;;;1.33;0.70;;;;;;;-144.94;42.90;75904.31;5014236;28;20087;-78
2022/06/06 09:25:25;;;;;;;1.15;0.50;;;;;;;-144.94;42.87;75894.00;5014473;28;20148;-77
2022/06/06 09:28:23;;;;;;;1.92;0.70;;;;;;;-144.94;43.38;75906.38;5014237;28;20041;-77
2022/06/06 09:31:07;;;;;;;1.75;0.70;;;;;;;-144.94;43.54;75896.06;4980849;28;20401;-78
2022/06/06 09:33:58;;;;;;;1.00;0.55;;;;;;;-144.94;42.86;75883.72;5014001;28;20419;-77
2022/06/06 09:36:26;;;;;;;0.70;0.40;;;;;;;-144.94;42.70;75898.13;5014269;28;20046;-79
2022/06/06 09:39:08;;;;;;;1.75;0.55;;;;;;;-144.94;42.97;75904.31;5013174;28;20053;-78
2022/06/06 09:41:45;;;;;;;1.73;0.70;;;;;;;-144.94;42.79;75914.59;5014357;28;20419;-77
2022/06/06 09:44:22;;;;;;;1.17;0.45;;;;;;;-144.94;42.93;75931.06;5013931;28;20030;-77
2022/06/06 09:47:13;;;;;;;1.15;0.50;;;;;;;-144.94;42.83;75966.06;5013656;28;20030;-77
2022/06/06 09:50:22;;;;;;;1.02;0.47;;;;;;;-144.94;43.03;75980.47;5013975;28;20088;-77
2022/06/06 09:52:56;;;;;;;1.75;0.70;;;;;;;-144.94;43.87;75955.75;5012523;28;20030;-78
2022/06/06 10:01:19;;;;;;;1.30;0.60;;;;;;;-144.94;42.95;75914.59;5013482;28;20499;-77
2022/06/06 10:04:01;;;;;;;1.52;0.60;;;;;;;-144.94;42.94;75918.72;5013882;28;20069;-78
2022/06/06 10:06:41;;;;;;;0.95;0.55;;;;;;;-144.94;42.74;75881.66;5013469;28;20099;-77
2022/06/06 10:09:25;;;;;;;2.65;0.70;;;;;;;-144.94;42.49;75832.25;5013795;28;20080;-78
2022/06/06 10:12:12;;;;;;;1.73;0.60;;;;;;;-144.94;41.56;75793.16;5013415;28;20026;-78
2022/06/06 10:14:56;;;;;;;0.93;0.50;;;;;;;-144.94;40.70;75764.34;5013727;28;20038;-78
2022/06/06 10:17:34;;;;;;;2.35;0.50;;;;;;;-144.94;40.87;75817.84;5013408;28;20117;-78
2022/06/06 10:20:17;;;;;;;0.63;0.45;;;;;;;-144.94;41.09;75821.97;5013604;28;20121;-78
2022/06/06 10:22:57;;;;;;;1.85;0.70;;;;;;;-144.94;41.34;75836.38;5013472;28;20076;-77
2022/06/06 10:25:39;;;;;;;1.70;0.60;;;;;;;-144.94;41.22;75815.78;5013506;28;20045;-77
2022/06/06 10:28:15;;;;;;;2.10;0.80;;;;;;;-144.94;41.31;75801.38;5013445;28;20117;-78
2022/06/06 10:31:05;;;;;;;1.95;0.70;;;;;;;-144.94;40.84;75799.31;5013562;28;20034;-78
2022/06/06 10:34:09;;;;;;;0.90;0.40;;;;;;;-144.94;40.90;75760.22;5013146;28;20382;-77
2022/06/06 10:36:48;;;;;;;1.17;0.50;;;;;;;-144.94;40.15;75739.63;5013125;28;20388;-78
2022/06/06 10:39:39;;;;;;;1.23;0.52;;;;;;;-144.94;40.10;75735.53;5013384;28;20034;-78
2022/06/06 10:42:20;;;;;;;0.70;0.50;;;;;;;-144.94;40.11;75758.16;5012966;28;20030;-78
2022/06/06 10:45:23;;;;;;;1.45;0.50;;;;;;;-144.94;40.69;75768.44;5013231;28;20091;-77
2022/06/06 10:48:04;;;;;;;2.47;0.60;;;;;;;-144.94;40.49;75741.69;4984973;28;20374;-79
2022/06/06 10:54:14;;;;;;;0.95;0.60;;;;;;;-144.94;40.12;75719.06;5016956;28;20080;-78
2022/06/06 10:56:51;;;;;;;0.88;0.43;;;;;;;-144.94;39.83;75696.41;5017013;28;20034;-78
2022/06/06 10:59:41;;;;;;;6.10;0.80;;;;;;;-144.94;39.20;75706.69;5016825;28;20099;-78
2022/06/06 11:02:36;;;;;;;2.00;0.60;;;;;;;-144.94;39.90;75710.81;5017012;28;20029;-79
2022/06/06 11:05:19;;;;;;;1.00;0.43;;;;;;;-144.94;39.50;75731.41;5017373;28;20034;-79
2022/06/06 11:07:50;;;;;;;1.55;0.60;;;;;;;-144.94;39.84;75725.22;5017119;28;20037;-78
2022/06/06 11:10:52;;;;;;;1.60;0.60;;;;;;;-144.94;40.54;75768.44;5016771;28;20030;-79
2022/06/06 11:13:46;;;;;;;0.98;0.60;;;;;;;-144.94;40.80;75784.91;5016866;28;20472;-78
2022/06/06 11:16:51;;;;;;;1.10;0.50;;;;;;;-144.94;41.16;75789.03;5016976;28;20106;-79
2022/06/06 11:19:41;;;;;;;0.30;0.30;;;;;;;-144.94;41.06;75830.19;5016255;28;20053;-79
2022/06/06 11:22:32;;;;;;;1.48;0.40;;;;;;;-144.94;41.71;75863.13;5016716;28;20045;-78
2022/06/06 11:25:11;;;;;;;2.03;0.70;;;;;;;-144.94;42.36;75881.66;5016866;28;20366;-78
2022/06/06 11:27:58;;;;;;;1.70;0.40;;;;;;;-144.94;43.00;75943.41;5016285;28;20056;-78
2022/06/06 11:30:32;;;;;;;1.13;0.45;;;;;;;-144.94;44.98;76050.47;5016361;28;20038;-78
2022/06/06 11:33:22;;;;;;;1.13;0.50;;;;;;;-144.94;46.36;76077.22;5016910;28;20028;-83
2022/06/06 11:35:54;;;;;;;0.95;0.55;;;;;;;-144.94;49.74;76149.25;5016711;28;20104;-78
2022/06/06 11:38:46;;;;;;;0.55;0.40;;;;;;;-144.94;52.30;76233.66;5016358;28;20022;-78
2022/06/06 11:41:49;;;;;;;0.60;0.32;;;;;;;-144.94;53.48;76225.44;5016712;28;20137;-79
2022/06/06 11:44:39;;;;;;;3.17;0.98;;;;;;;-144.94;53.47;76231.59;5016932;28;20030;-82
2022/06/06 11:47:16;;;;;;;3.22;0.73;;;;;;;-144.94;52.78;76252.19;5021005;28;20487;-80
2022/06/06 11:49:54;;;;;;;1.05;0.60;;;;;;;-144.94;52.17;76264.53;5018018;28;20038;-79
2022/06/06 11:52:42;;;;;;;2.63;0.60;;;;;;;-144.94;51.73;76239.84;5016533;28;20029;-78
2022/06/06 11:55:28;;;;;;;1.52;0.70;;;;;;;-144.94;51.91;76208.97;5017213;28;20030;-78
2022/06/06 11:58:12;;;;;;;2.25;0.90;;;;;;;-144.94;51.19;76155.44;5016634;28;20029;-79
2022/06/06 12:00:49;;;;;;;1.52;0.60;;;;;;;-144.94;51.00;76136.91;5016151;28;20476;-78
2022/06/06 12:03:43;;;;;;;2.08;0.80;;;;;;;-144.94;50.93;76138.97;5014768;28;20494;-78
2022/06/06 12:06:48;;;;;;;1.48;0.60;;;;;;;-144.94;50.80;76124.56;5015636;28;20042;-77
2022/06/06 12:09:26;;;;;;;2.13;0.60;;;;;;;-144.94;50.66;76120.44;5015515;28;20030;-78
2022/06/06 12:12:03;;;;;;;1.23;0.57;;;;;;;-144.94;50.39;76124.56;5015762;28;20076;-78
2022/06/06 12:15:00;;;;;;;1.98;0.75;;;;;;;-144.94;50.08;76112.22;5015167;28;20034;-78
2022/06/06 12:18:17;;;;;;;0.75;0.55;;;;;;;-144.94;47.92;75992.81;5014176;28;20032;-78
2022/06/06 12:20:54;;;;;;;2.15;0.70;;;;;;;-144.94;46.60;75900.19;4990276;28;20053;-78
2022/06/06 12:23:29;;;;;;;1.88;0.70;;;;;;;-144.94;45.33;75778.75;5015287;28;20472;-79
2022/06/06 12:26:14;;;;;;;1.15;0.60;;;;;;;-144.94;43.02;75690.22;5015196;28;20052;-78
2022/06/06 12:29:09;;;;;;;1.00;0.50;;;;;;;-144.94;41.30;75624.38;5015379;28;20041;-78